Time;durP1;ratioP1;P1;durP2;ratioP2;P2;SDS_P1;SDS_P2;PMS_P1;PMS_P2;Temp;Humidity;BMP_temperature;BMP_pressure;BME280_temperature;BME280_humidity;BME280_pressure;Samples;Min_cycle;Max_cycle;Signal;HPM_P1;HPM_P2
2022/04/04 00:00:57;;;;;;;11.20;5.80;;;22.50;33.20;;;;;;6112577;28;80536;-66
2022/04/04 00:03:57;;;;;;;7.65;5.25;;;22.50;33.10;;;;;;6112644;28;80404;-66
2022/04/04 00:06:59;;;;;;;10.75;5.47;;;22.50;33.20;;;;;;6112713;28;80504;-65
2022/04/04 00:10:01;;;;;;;9.27;5.18;;;22.50;32.90;;;;;;6112044;28;80620;-66
2022/04/04 00:13:01;;;;;;;6.93;4.55;;;22.50;33.00;;;;;;6112164;28;81534;-66
2022/04/04 00:16:02;;;;;;;9.55;5.60;;;22.50;33.20;;;;;;6112279;28;80897;-66
2022/04/04 00:19:02;;;;;;;10.07;5.30;;;22.50;33.00;;;;;;6112468;28;80279;-66
2022/04/04 00:22:03;;;;;;;9.65;5.55;;;22.50;33.20;;;;;;6130762;28;80308;-66
2022/04/04 00:25:05;;;;;;;10.27;5.82;;;22.50;32.90;;;;;;6123123;28;80953;-66
2022/04/04 00:28:05;;;;;;;10.32;5.93;;;22.40;33.00;;;;;;6112158;28;80351;-66
2022/04/04 00:31:06;;;;;;;15.27;5.65;;;22.40;32.80;;;;;;6110291;28;82570;-66
2022/04/04 00:34:07;;;;;;;10.43;6.00;;;22.40;32.80;;;;;;6111871;28;81008;-66
2022/04/04 00:37:08;;;;;;;10.18;5.75;;;22.40;33.40;;;;;;6111757;28;80418;-66
2022/04/04 00:40:08;;;;;;;12.45;5.97;;;22.40;33.00;;;;;;6111788;28;80412;-66
2022/04/04 00:43:09;;;;;;;9.27;5.20;;;22.40;32.90;;;;;;6102415;28;81789;-66
2022/04/04 00:46:09;;;;;;;11.77;6.28;;;22.40;32.90;;;;;;6103564;28;80745;-67
2022/04/04 00:49:10;;;;;;;12.05;5.75;;;22.40;32.80;;;;;;6111751;28;80715;-66
2022/04/04 00:52:10;;;;;;;8.73;4.50;;;22.40;32.70;;;;;;6111713;28;80391;-66
2022/04/04 00:55:11;;;;;;;10.70;5.40;;;22.40;32.70;;;;;;6111478;28;80915;-65
2022/04/04 00:58:12;;;;;;;13.23;6.25;;;22.40;32.70;;;;;;6111644;28;81949;-66
2022/04/04 01:01:12;;;;;;;12.07;5.72;;;22.40;32.50;;;;;;6111493;28;81018;-67
2022/04/04 01:04:13;;;;;;;11.43;6.38;;;22.40;32.50;;;;;;6095848;28;80576;-66
2022/04/04 01:07:13;;;;;;;11.05;5.88;;;22.40;32.50;;;;;;6108971;28;80738;-66
2022/04/04 01:10:14;;;;;;;10.60;5.30;;;22.40;32.40;;;;;;6109627;28;82022;-66
2022/04/04 01:13:14;;;;;;;10.32;5.22;;;22.40;32.50;;;;;;6111153;28;80486;-66
2022/04/04 01:16:15;;;;;;;10.68;5.50;;;22.40;32.60;;;;;;6110792;28;80506;-66
2022/04/04 01:19:15;;;;;;;12.05;6.63;;;22.30;32.50;;;;;;6110690;28;80201;-66
2022/04/04 01:22:16;;;;;;;12.00;6.13;;;22.40;32.30;;;;;;6110750;28;80847;-67
2022/04/04 01:25:17;;;;;;;10.45;5.50;;;22.40;32.40;;;;;;6110832;28;80404;-67
2022/04/04 01:28:17;;;;;;;11.55;6.15;;;22.40;32.40;;;;;;6109739;28;80575;-67
2022/04/04 01:31:18;;;;;;;9.80;6.05;;;22.40;32.40;;;;;;6110452;28;80452;-66
2022/04/04 01:34:18;;;;;;;8.32;4.53;;;22.40;32.30;;;;;;6110840;28;80420;-66
2022/04/04 01:37:19;;;;;;;8.65;4.88;;;22.30;32.20;;;;;;6110566;28;80600;-66
2022/04/04 01:40:19;;;;;;;9.70;5.70;;;22.30;32.20;;;;;;6110395;28;81488;-66
2022/04/04 01:43:20;;;;;;;9.60;5.47;;;22.30;32.10;;;;;;6100843;28;83948;-66
2022/04/04 01:46:23;;;;;;;10.18;5.50;;;22.40;32.30;;;;;;6094152;28;81889;-65
2022/04/04 01:49:25;;;;;;;9.48;5.38;;;22.40;32.40;;;;;;6110391;28;80279;-66
2022/04/04 01:52:26;;;;;;;9.98;5.82;;;22.40;32.30;;;;;;6110457;28;80644;-65
2022/04/04 01:55:26;;;;;;;10.50;5.35;;;22.40;32.30;;;;;;6110759;28;80347;-66
2022/04/04 01:58:27;;;;;;;8.63;5.15;;;22.40;32.30;;;;;;6106765;28;80479;-66
2022/04/04 02:01:27;;;;;;;12.52;5.45;;;22.40;32.20;;;;;;6093369;28;80488;-66
2022/04/04 02:04:28;;;;;;;11.00;5.88;;;22.30;32.20;;;;;;6110678;28;80398;-65
2022/04/04 02:07:28;;;;;;;10.52;5.75;;;22.30;32.10;;;;;;6110251;28;80647;-65
2022/04/04 02:10:29;;;;;;;9.88;5.32;;;22.30;32.10;;;;;;6108559;28;80982;-65
2022/04/04 02:13:29;;;;;;;14.50;5.50;;;22.30;32.20;;;;;;6121626;28;80828;-65
2022/04/04 02:16:30;;;;;;;10.75;5.60;;;22.30;32.00;;;;;;6129483;28;81419;-65
2022/04/04 02:19:31;;;;;;;8.63;4.88;;;22.30;32.00;;;;;;6110399;28;80571;-64
2022/04/04 02:22:32;;;;;;;9.05;5.22;;;22.30;32.00;;;;;;6109664;28;80479;-65
2022/04/04 02:25:32;;;;;;;11.57;5.85;;;22.30;32.00;;;;;;6110046;28;81694;-65
2022/04/04 02:28:33;;;;;;;9.18;4.72;;;22.30;32.00;;;;;;6109978;28;80435;-65
2022/04/04 02:31:33;;;;;;;7.65;4.85;;;22.30;32.10;;;;;;6109593;28;80432;-65
2022/04/04 02:34:34;;;;;;;8.80;4.43;;;22.30;32.00;;;;;;6109481;28;81755;-66
2022/04/04 02:37:35;;;;;;;9.85;5.18;;;22.20;31.90;;;;;;6109639;28;80319;-65
2022/04/04 02:40:35;;;;;;;9.73;5.07;;;22.20;31.90;;;;;;6109562;28;80738;-64
2022/04/04 02:43:36;;;;;;;7.63;4.40;;;22.20;31.50;;;;;;6109855;28;80470;-64
2022/04/04 02:46:36;;;;;;;7.18;4.22;;;22.20;31.70;;;;;;6109749;28;80410;-64
2022/04/04 02:49:38;;;;;;;12.90;4.78;;;22.20;31.80;;;;;;6110092;28;80234;-64
2022/04/04 02:52:38;;;;;;;8.43;4.43;;;22.20;31.80;;;;;;6109291;28;80391;-65
2022/04/04 02:58:58;;;;;;;7.22;4.03;;;22.20;31.70;;;;;;6109348;28;80298;-67
2022/04/04 03:01:59;;;;;;;6.80;3.95;;;22.20;31.60;;;;;;6109401;28;80721;-65
2022/04/04 03:04:59;;;;;;;7.03;3.92;;;22.20;31.60;;;;;;6109796;28;80976;-64
2022/04/04 03:08:00;;;;;;;8.55;3.78;;;22.20;31.40;;;;;;6107601;28;80484;-65
2022/04/04 03:11:00;;;;;;;6.35;3.85;;;22.20;31.40;;;;;;6133452;28;80312;-64
2022/04/04 03:14:01;;;;;;;6.13;3.80;;;22.30;32.40;;;;;;6122294;28;80410;-65
2022/04/04 03:17:01;;;;;;;7.82;4.20;;;22.30;31.40;;;;;;6112490;28;81261;-65
2022/04/04 03:20:02;;;;;;;8.05;4.55;;;22.40;31.00;;;;;;6123644;28;80488;-67
2022/04/04 03:23:02;;;;;;;6.57;3.72;;;22.50;30.90;;;;;;6112797;28;80530;-65
2022/04/04 03:26:03;;;;;;;6.97;3.80;;;22.50;30.90;;;;;;6113296;28;80479;-64
2022/04/04 03:29:03;;;;;;;5.97;3.50;;;22.60;30.90;;;;;;6110169;28;81783;-67
2022/04/04 03:32:04;;;;;;;7.57;3.97;;;22.70;30.80;;;;;;6112699;28;81727;-66
2022/04/04 03:35:04;;;;;;;5.80;3.47;;;22.70;30.80;;;;;;6112745;28;81158;-67
2022/04/04 03:38:07;;;;;;;5.93;3.42;;;22.80;30.80;;;;;;6109963;28;82275;-65
2022/04/04 03:41:09;;;;;;;6.53;3.63;;;22.80;30.60;;;;;;6111717;28;80399;-68
2022/04/04 03:44:10;;;;;;;6.55;3.75;;;22.90;30.50;;;;;;6105297;28;80512;-70
2022/04/04 03:47:10;;;;;;;5.70;3.25;;;23.00;30.50;;;;;;6111516;28;80472;-68
2022/04/04 03:50:12;;;;;;;5.80;3.20;;;23.00;30.50;;;;;;6112310;28;86712;-70
2022/04/04 03:53:12;;;;;;;9.38;3.95;;;23.00;30.30;;;;;;6112406;28;80013;-70
2022/04/04 03:56:13;;;;;;;6.45;3.90;;;23.00;30.30;;;;;;6112956;28;81022;-70
2022/04/04 03:59:14;;;;;;;6.05;3.33;;;23.10;30.00;;;;;;6112215;28;81636;-73
2022/04/04 04:02:14;;;;;;;8.73;4.07;;;23.10;29.90;;;;;;6107067;28;80281;-67
2022/04/04 04:05:15;;;;;;;7.20;3.50;;;23.10;29.80;;;;;;6117050;28;80758;-69
2022/04/04 04:08:16;;;;;;;6.30;3.60;;;23.10;29.60;;;;;;6135225;28;80758;-69
2022/04/04 04:11:16;;;;;;;6.90;3.63;;;23.20;29.90;;;;;;6112802;28;80136;-71
2022/04/04 04:14:17;;;;;;;5.00;3.40;;;23.20;29.70;;;;;;6111767;28;80398;-69
2022/04/04 04:17:18;;;;;;;5.20;3.15;;;23.20;29.80;;;;;;6112492;28;80645;-69
2022/04/04 04:20:19;;;;;;;7.95;3.50;;;23.20;29.60;;;;;;6112536;28;80611;-69
2022/04/04 04:23:20;;;;;;;14.30;3.78;;;23.20;29.70;;;;;;6112587;28;80274;-68
2022/04/04 04:26:21;;;;;;;5.53;3.30;;;23.20;29.60;;;;;;6112130;28;81802;-67
2022/04/04 04:29:22;;;;;;;5.38;3.33;;;23.20;29.50;;;;;;6111873;28;81080;-71
2022/04/04 04:32:22;;;;;;;3.97;2.80;;;23.10;29.50;;;;;;6088899;28;81651;-69
2022/04/04 04:35:23;;;;;;;4.15;2.95;;;23.20;29.40;;;;;;6090551;28;81525;-69
2022/04/04 04:38:23;;;;;;;9.13;3.35;;;23.20;29.30;;;;;;6088317;28;80436;-68
2022/04/04 04:41:25;;;;;;;6.75;3.10;;;23.20;29.50;;;;;;6108297;28;80433;-72
2022/04/04 04:44:25;;;;;;;5.30;3.08;;;23.20;29.20;;;;;;6106959;28;80418;-74
2022/04/04 04:47:26;;;;;;;6.70;3.22;;;23.20;29.10;;;;;;6112042;28;80912;-67
2022/04/04 04:50:26;;;;;;;7.15;2.88;;;23.30;29.30;;;;;;6111988;28;80286;-67
2022/04/04 04:53:27;;;;;;;7.47;3.58;;;23.30;29.60;;;;;;6111808;28;80344;-68
2022/04/04 04:56:27;;;;;;;5.13;3.10;;;23.30;29.60;;;;;;6111704;28;80519;-68
2022/04/04 04:59:28;;;;;;;6.50;3.45;;;23.30;29.70;;;;;;6111656;28;80832;-67
2022/04/04 05:02:28;;;;;;;6.55;3.58;;;23.30;29.70;;;;;;6111081;28;80074;-67
2022/04/04 05:05:29;;;;;;;7.38;3.53;;;23.40;29.90;;;;;;6111461;28;80872;-68
2022/04/04 05:08:30;;;;;;;5.10;3.45;;;23.40;29.90;;;;;;6111174;28;81970;-66
2022/04/04 05:11:31;;;;;;;4.32;2.90;;;23.30;29.80;;;;;;6109371;28;81019;-67
2022/04/04 05:14:32;;;;;;;6.68;2.95;;;23.40;29.80;;;;;;6111418;28;80530;-72
2022/04/04 05:17:32;;;;;;;5.38;3.15;;;23.30;29.70;;;;;;6087714;28;80473;-67
2022/04/04 05:20:33;;;;;;;4.65;3.03;;;23.30;29.40;;;;;;6093944;28;80395;-69
2022/04/04 05:23:34;;;;;;;5.80;3.03;;;23.30;29.50;;;;;;6086803;28;80942;-67
2022/04/04 05:26:34;;;;;;;6.93;3.22;;;23.20;29.50;;;;;;6086599;28;80563;-76
2022/04/04 05:29:35;;;;;;;3.83;2.60;;;23.20;29.50;;;;;;6096691;28;80982;-67
2022/04/04 05:32:35;;;;;;;6.72;3.13;;;23.20;29.60;;;;;;6087500;28;80731;-67
2022/04/04 05:35:36;;;;;;;6.50;3.60;;;23.20;29.80;;;;;;6092493;28;80426;-67
2022/04/04 05:38:37;;;;;;;5.38;3.10;;;23.20;29.70;;;;;;6111327;28;80319;-67
2022/04/04 05:41:37;;;;;;;4.90;2.30;;;23.20;29.80;;;;;;6107445;28;80907;-67
2022/04/04 05:44:38;;;;;;;4.82;3.05;;;23.20;29.70;;;;;;6089790;28;80159;-67
2022/04/04 05:47:38;;;;;;;9.38;2.67;;;23.10;29.80;;;;;;6106525;28;81907;-63
2022/04/04 05:50:39;;;;;;;4.03;2.88;;;23.10;30.20;;;;;;6110966;28;80494;-72
2022/04/04 05:53:39;;;;;;;3.20;2.60;;;23.10;30.20;;;;;;6132560;28;83442;-75
2022/04/04 05:56:40;;;;;;;3.20;2.50;;;23.10;31.20;;;;;;6124398;28;80570;-66
2022/04/04 05:59:41;;;;;;;8.05;3.20;;;23.10;31.70;;;;;;6124489;28;80634;-69
2022/04/04 06:02:41;;;;;;;5.05;2.58;;;23.10;32.00;;;;;;6105853;28;80561;-67
2022/04/04 06:05:42;;;;;;;6.20;2.97;;;23.10;31.50;;;;;;6111424;28;80353;-69
2022/04/04 06:08:42;;;;;;;6.80;3.17;;;23.10;32.80;;;;;;6110436;28;80350;-75
2022/04/04 06:12:08;;;;;;;8.65;4.65;;;23.10;33.20;;;;;;6110223;28;80366;-68
2022/04/04 06:15:10;;;;;;;13.50;5.72;;;23.10;32.90;;;;;;6110528;28;80491;-67
2022/04/04 06:18:11;;;;;;;22.63;8.93;;;23.00;32.50;;;;;;6110036;28;80819;-69
2022/04/04 06:21:11;;;;;;;28.55;10.80;;;23.00;32.20;;;;;;6108131;28;80870;-69
2022/04/04 06:24:12;;;;;;;32.92;13.10;;;23.00;31.80;;;;;;6131438;28;82993;-74
2022/04/04 06:27:12;;;;;;;28.08;12.75;;;23.00;31.50;;;;;;6121454;28;83247;-69
2022/04/04 06:30:13;;;;;;;35.30;13.02;;;22.90;31.20;;;;;;6107549;28;82844;-69
2022/04/04 06:33:13;;;;;;;38.03;14.13;;;22.90;31.00;;;;;;6107082;28;82984;-69
2022/04/04 06:36:14;;;;;;;34.10;13.77;;;22.90;30.80;;;;;;6106899;28;84309;-72
2022/04/04 06:39:14;;;;;;;32.00;11.35;;;22.90;30.50;;;;;;6106996;28;82938;-70
2022/04/04 06:42:15;;;;;;;20.00;10.05;;;22.90;30.50;;;;;;6105386;28;84380;-69
2022/04/04 06:45:17;;;;;;;15.75;8.52;;;22.90;30.30;;;;;;6108825;28;83180;-68
2022/04/04 06:48:17;;;;;;;20.13;8.38;;;22.90;30.60;;;;;;6113589;28;82732;-68
2022/04/04 06:51:18;;;;;;;14.93;7.55;;;22.90;30.60;;;;;;6111067;28;80578;-69
2022/04/04 06:54:19;;;;;;;15.52;6.47;;;22.90;30.90;;;;;;6109289;28;80297;-68
2022/04/04 06:57:19;;;;;;;16.02;6.05;;;22.90;31.00;;;;;;6126538;28;80805;-70
2022/04/04 07:00:21;;;;;;;12.63;5.32;;;22.90;31.00;;;;;;6106784;28;81541;-69
2022/04/04 07:03:22;;;;;;;10.70;4.60;;;22.90;30.90;;;;;;6112195;28;80730;-70
2022/04/04 07:06:23;;;;;;;6.75;4.03;;;22.90;30.90;;;;;;6114781;28;81363;-71
2022/04/04 07:09:24;;;;;;;9.15;4.57;;;22.90;30.70;;;;;;6110638;28;81206;-69
2022/04/04 07:12:24;;;;;;;6.55;4.10;;;23.00;30.80;;;;;;6114496;28;80857;-68
2022/04/04 07:15:25;;;;;;;6.53;3.67;;;23.00;30.60;;;;;;6101049;28;80699;-70
2022/04/04 07:18:25;;;;;;;38.13;17.75;;;23.00;30.70;;;;;;6101801;28;80847;-70
2022/04/04 07:21:28;;;;;;;74.78;35.20;;;23.00;30.50;;;;;;6110301;28;83151;-70
2022/04/04 07:24:28;;;;;;;200.98;88.72;;;23.00;30.30;;;;;;6110884;28;83201;-70
2022/04/04 07:27:29;;;;;;;167.43;71.57;;;23.00;30.30;;;;;;6108204;28;83393;-69
2022/04/04 07:30:30;;;;;;;157.38;71.53;;;23.00;30.40;;;;;;6110820;28;84250;-69
2022/04/04 07:33:30;;;;;;;128.75;62.47;;;23.10;30.30;;;;;;6110767;28;83058;-69
2022/04/04 07:36:31;;;;;;;157.18;71.88;;;23.10;30.40;;;;;;6092026;28;90694;-72
2022/04/04 07:39:32;;;;;;;177.95;86.05;;;23.10;30.30;;;;;;6091488;28;83064;-73
2022/04/04 07:42:32;;;;;;;191.07;94.72;;;23.00;30.10;;;;;;6100839;28;83299;-73
2022/04/04 07:45:33;;;;;;;214.57;101.80;;;23.10;30.00;;;;;;6090246;28;84126;-72
2022/04/04 07:48:33;;;;;;;215.15;102.50;;;23.20;30.00;;;;;;6091225;28;85341;-69
2022/04/04 07:51:34;;;;;;;162.98;78.32;;;23.30;29.90;;;;;;6107214;28;85802;-71
2022/04/04 07:54:34;;;;;;;143.38;69.05;;;23.30;29.70;;;;;;6108115;28;84088;-68
2022/04/04 07:57:35;;;;;;;126.18;58.15;;;23.40;29.70;;;;;;6090478;28;83708;-71
2022/04/04 08:00:36;;;;;;;103.93;48.30;;;23.50;29.70;;;;;;6087567;28;83600;-68
2022/04/04 08:03:36;;;;;;;91.93;43.75;;;23.60;29.60;;;;;;6091335;28;84185;-68
2022/04/04 08:06:37;;;;;;;78.30;35.45;;;23.60;29.40;;;;;;6106602;28;84077;-68
2022/04/04 08:09:37;;;;;;;66.57;31.95;;;23.70;29.30;;;;;;6098628;28;83941;-69
2022/04/04 08:12:38;;;;;;;58.83;28.48;;;23.70;29.30;;;;;;6110730;28;83026;-69
2022/04/04 08:15:38;;;;;;;52.28;24.13;;;23.70;29.50;;;;;;6110210;28;83261;-70
2022/04/04 08:18:39;;;;;;;38.05;21.88;;;23.80;29.90;;;;;;6109643;28;82790;-70
2022/04/04 08:21:44;;;;;;;47.00;23.15;;;23.80;29.50;;;;;;6099154;28;83900;-67
2022/04/04 08:24:45;;;;;;;42.28;19.77;;;23.90;29.60;;;;;;6087959;28;83957;-68
2022/04/04 08:27:48;;;;;;;33.80;17.83;;;23.90;29.50;;;;;;6084729;28;83085;-68
2022/04/04 08:30:52;;;;;;;32.00;16.50;;;24.00;29.70;;;;;;6084466;28;83114;-68
2022/04/04 08:33:52;;;;;;;30.17;14.38;;;24.00;29.80;;;;;;6087293;28;84256;-67
2022/04/04 08:36:53;;;;;;;28.30;14.00;;;24.00;30.00;;;;;;6085903;28;83845;-69
2022/04/04 08:39:53;;;;;;;23.15;12.57;;;24.00;30.20;;;;;;6095901;28;82910;-68
2022/04/04 08:42:54;;;;;;;23.88;12.18;;;24.00;30.60;;;;;;6109911;28;82603;-69
2022/04/04 08:45:55;;;;;;;21.77;11.68;;;24.00;30.90;;;;;;6109464;28;84204;-68
2022/04/04 08:48:58;;;;;;;16.98;9.48;;;24.00;30.60;;;;;;6109274;28;83116;-68
2022/04/04 08:51:58;;;;;;;20.08;9.95;;;24.00;30.30;;;;;;6112005;28;87768;-68
2022/04/04 08:54:59;;;;;;;13.43;8.23;;;24.00;30.10;;;;;;6105081;28;82185;-67
2022/04/04 08:57:59;;;;;;;19.83;9.38;;;24.00;30.00;;;;;;6111935;28;80321;-68
2022/04/04 09:01:00;;;;;;;17.65;8.18;;;24.00;30.00;;;;;;6112577;28;80492;-67
2022/04/04 09:04:01;;;;;;;11.82;6.43;;;23.90;29.90;;;;;;6112382;28;80243;-67
2022/04/04 09:07:05;;;;;;;15.32;7.57;;;24.00;29.90;;;;;;6110132;28;82980;-67
2022/04/04 09:10:05;;;;;;;14.40;7.28;;;24.00;29.90;;;;;;6110928;28;81453;-67
2022/04/04 09:13:06;;;;;;;13.18;7.00;;;24.00;30.00;;;;;;6111662;28;82591;-71
2022/04/04 09:16:07;;;;;;;12.80;6.70;;;24.00;30.00;;;;;;6104524;28;80374;-72
2022/04/04 09:19:07;;;;;;;9.77;6.10;;;23.90;29.90;;;;;;6088769;28;81026;-70
2022/04/04 09:22:08;;;;;;;8.80;5.72;;;23.90;30.00;;;;;;6108187;28;80406;-67
2022/04/04 09:25:09;;;;;;;9.57;5.32;;;23.90;30.00;;;;;;6105814;28;80821;-68
2022/04/04 09:28:10;;;;;;;9.38;5.63;;;23.90;30.00;;;;;;6092123;28;81876;-71
2022/04/04 09:31:11;;;;;;;10.00;5.15;;;23.90;30.00;;;;;;6097096;28;80315;-72
2022/04/04 09:34:12;;;;;;;9.55;5.45;;;24.00;30.20;;;;;;6110803;28;81803;-70
2022/04/04 09:37:12;;;;;;;9.10;4.75;;;23.90;30.00;;;;;;6107946;28;82543;-71
2022/04/04 09:40:15;;;;;;;7.40;4.80;;;23.90;30.00;;;;;;6110093;28;81691;-71
2022/04/04 09:43:16;;;;;;;6.82;4.63;;;24.00;30.10;;;;;;6112118;28;84337;-72
2022/04/04 09:46:16;;;;;;;7.63;4.43;;;24.00;30.00;;;;;;6111982;28;80286;-68
2022/04/04 09:49:17;;;;;;;22.88;4.13;;;23.90;30.40;;;;;;6112351;28;80375;-70
2022/04/04 09:52:18;;;;;;;7.55;3.67;;;23.90;30.60;;;;;;6111227;28;80340;-67
2022/04/04 09:55:18;;;;;;;5.70;3.60;;;24.00;30.70;;;;;;6105316;28;80333;-67
2022/04/04 09:58:19;;;;;;;11.13;4.15;;;24.00;31.20;;;;;;6111865;28;80555;-70
2022/04/04 10:01:20;;;;;;;10.75;4.63;;;24.00;31.50;;;;;;6098431;28;83431;-73
2022/04/04 10:04:22;;;;;;;11.73;4.28;;;24.00;31.80;;;;;;6104740;28;87745;-67
2022/04/04 10:07:23;;;;;;;7.85;3.72;;;24.00;32.10;;;;;;6103549;28;80470;-65
2022/04/04 10:10:24;;;;;;;8.40;3.47;;;24.10;32.50;;;;;;6111039;28;80570;-65
2022/04/04 10:13:24;;;;;;;10.30;4.32;;;24.10;33.20;;;;;;6109674;28;82162;-66
2022/04/04 10:16:25;;;;;;;12.35;4.20;;;24.00;32.00;;;;;;6102930;28;80423;-66
2022/04/04 10:19:27;;;;;;;8.25;4.22;;;23.90;31.00;;;;;;6108646;28;81382;-69
2022/04/04 10:22:27;;;;;;;6.70;3.33;;;23.80;31.10;;;;;;6095830;28;80823;-69
2022/04/04 10:25:28;;;;;;;5.13;3.10;;;23.70;30.50;;;;;;6091715;28;80619;-68
2022/04/04 10:28:29;;;;;;;6.50;3.13;;;23.60;30.00;;;;;;6112737;28;81478;-69
2022/04/04 10:31:29;;;;;;;4.40;3.10;;;23.50;29.70;;;;;;6115391;28;80369;-68
2022/04/04 10:34:30;;;;;;;4.75;3.20;;;23.30;29.50;;;;;;6115529;28;80259;-68
2022/04/04 10:37:30;;;;;;;8.32;3.10;;;23.30;29.40;;;;;;6114261;28;80820;-67
2022/04/04 10:40:31;;;;;;;8.23;3.47;;;23.20;29.70;;;;;;6110900;28;80534;-68
2022/04/04 10:43:31;;;;;;;6.97;3.35;;;23.20;29.50;;;;;;6109671;28;80383;-68
2022/04/04 10:46:32;;;;;;;6.40;3.22;;;23.00;29.30;;;;;;6113945;28;81411;-68
2022/04/04 10:49:32;;;;;;;4.95;3.00;;;22.80;29.40;;;;;;6110377;28;80580;-69
2022/04/04 10:52:33;;;;;;;7.80;3.80;;;22.90;29.30;;;;;;6128206;28;81112;-69
2022/04/04 10:55:34;;;;;;;3.72;2.83;;;22.80;29.30;;;;;;6115015;28;80892;-70
2022/04/04 10:58:34;;;;;;;4.35;3.08;;;22.90;30.00;;;;;;6114327;28;81527;-70
2022/04/04 11:01:35;;;;;;;4.90;3.00;;;23.10;30.00;;;;;;6114847;28;80455;-70
2022/04/04 11:07:37;;;;;;;3.53;2.53;;;23.20;30.10;;;;;;6113933;28;80356;-72
2022/04/04 11:07:56;;;;;;;5.03;2.70;;;23.30;30.20;;;;;;6114667;28;79957;-68
2022/04/04 11:10:56;;;;;;;5.78;2.70;;;23.40;30.30;;;;;;6112395;28;81535;-69
2022/04/04 11:13:57;;;;;;;4.15;2.90;;;23.50;30.30;;;;;;6114490;28;80576;-69
2022/04/04 11:16:57;;;;;;;4.65;3.00;;;23.50;30.20;;;;;;6111070;28;80885;-70
2022/04/04 11:20:02;;;;;;;6.72;3.30;;;23.60;30.10;;;;;;6114718;28;81788;-71
2022/04/04 11:23:04;;;;;;;5.22;3.00;;;23.70;30.40;;;;;;6113209;28;80188;-69
2022/04/04 11:26:08;;;;;;;3.35;2.65;;;23.70;31.00;;;;;;6099728;28;81174;-71
2022/04/04 11:29:10;;;;;;;4.45;2.58;;;23.70;30.20;;;;;;6110109;28;80484;-68
2022/04/04 11:32:15;;;;;;;3.85;2.88;;;23.80;30.10;;;;;;6111773;28;81770;-68
2022/04/04 11:35:18;;;;;;;7.57;3.20;;;23.80;30.00;;;;;;6107388;28;80354;-68
2022/04/04 11:38:20;;;;;;;5.40;2.78;;;23.80;30.20;;;;;;6108850;28;80864;-68
2022/04/04 11:41:22;;;;;;;3.75;2.85;;;23.90;30.20;;;;;;6119603;28;82144;-70
2022/04/04 11:44:25;;;;;;;6.65;3.40;;;23.90;30.20;;;;;;6111197;28;80364;-67
2022/04/04 11:47:26;;;;;;;7.78;3.00;;;23.90;29.90;;;;;;6113724;28;80520;-67
2022/04/04 11:50:28;;;;;;;5.93;3.08;;;23.90;29.70;;;;;;6113724;28;80169;-67
2022/04/04 11:53:35;;;;;;;5.75;3.83;;;23.90;29.60;;;;;;6113090;28;80579;-67
2022/04/04 11:56:35;;;;;;;4.03;3.05;;;23.90;29.50;;;;;;6113551;28;80663;-67
2022/04/04 11:59:36;;;;;;;8.65;3.33;;;23.90;29.50;;;;;;6113131;28;80395;-67
2022/04/04 12:02:37;;;;;;;7.97;4.47;;;23.90;29.40;;;;;;6113946;28;80613;-69
2022/04/04 12:05:37;;;;;;;94.10;37.25;;;23.90;29.50;;;;;;6105203;28;80613;-69
2022/04/04 12:08:42;;;;;;;333.67;124.28;;;23.90;29.50;;;;;;6092669;28;83202;-66
2022/04/04 12:11:43;;;;;;;352.35;134.90;;;23.90;29.60;;;;;;6106704;28;85429;-66
2022/04/04 12:14:44;;;;;;;293.23;116.00;;;23.90;29.70;;;;;;6106806;28;85465;-69
2022/04/04 12:17:44;;;;;;;391.27;156.15;;;24.00;30.00;;;;;;6107040;28;85484;-68
2022/04/04 12:20:45;;;;;;;440.50;187.55;;;24.00;30.10;;;;;;6106718;28;85633;-68
2022/04/04 12:27:04;;;;;;;386.00;155.30;;;24.00;30.10;;;;;;6105387;28;85540;-67
2022/04/04 12:30:05;;;;;;;346.52;146.88;;;24.10;30.40;;;;;;6105504;28;85872;-68
2022/04/04 12:33:06;;;;;;;305.85;126.72;;;24.10;30.20;;;;;;6105720;28;87562;-71
2022/04/04 12:36:06;;;;;;;285.60;116.68;;;24.10;30.30;;;;;;6103164;28;86585;-70
2022/04/04 12:39:08;;;;;;;268.67;106.88;;;24.10;30.40;;;;;;6105940;28;86576;-68
2022/04/04 12:42:08;;;;;;;229.68;94.28;;;24.10;30.40;;;;;;6102333;28;88507;-69
2022/04/04 12:45:11;;;;;;;209.68;85.03;;;24.10;30.30;;;;;;6103433;28;85401;-69
2022/04/04 12:48:11;;;;;;;165.65;72.07;;;24.10;30.50;;;;;;6092981;28;83084;-69
2022/04/04 12:51:12;;;;;;;159.25;66.82;;;24.10;30.90;;;;;;6090505;28;83405;-69
2022/04/04 12:54:13;;;;;;;144.88;62.03;;;24.00;31.20;;;;;;6089235;28;83092;-69
2022/04/04 12:57:13;;;;;;;120.95;52.67;;;24.10;31.30;;;;;;6107246;28;83425;-70
2022/04/04 13:00:14;;;;;;;130.98;51.95;;;24.00;31.50;;;;;;6095887;28;84114;-70
2022/04/04 13:03:15;;;;;;;115.60;47.38;;;24.10;31.80;;;;;;6108867;28;83312;-70
2022/04/04 13:06:16;;;;;;;111.85;44.92;;;24.10;31.80;;;;;;6107504;28;83023;-69
2022/04/04 13:09:16;;;;;;;90.45;38.90;;;24.10;31.60;;;;;;6108637;28;82945;-68
2022/04/04 13:12:17;;;;;;;93.82;36.67;;;24.10;31.80;;;;;;6085611;28;83629;-69
2022/04/04 13:15:17;;;;;;;73.43;32.53;;;24.10;31.50;;;;;;6094458;28;82951;-70
2022/04/04 13:18:18;;;;;;;66.78;29.45;;;24.10;31.60;;;;;;6108936;28;83165;-70
2022/04/04 13:21:19;;;;;;;59.90;28.27;;;24.10;31.80;;;;;;6108805;28;82997;-69
2022/04/04 13:24:19;;;;;;;50.90;23.00;;;24.00;32.00;;;;;;6108429;28;84104;-72
2022/04/04 13:27:20;;;;;;;40.35;18.65;;;24.00;31.60;;;;;;6108171;28;83167;-70
2022/04/04 13:30:21;;;;;;;46.63;18.90;;;24.00;31.00;;;;;;6107200;28;83232;-69
2022/04/04 13:33:22;;;;;;;35.83;15.38;;;24.10;30.00;;;;;;6108688;28;83268;-69
2022/04/04 13:36:23;;;;;;;19.13;8.63;;;24.00;29.50;;;;;;6108723;28;83394;-71
2022/04/04 13:39:23;;;;;;;17.95;7.97;;;24.00;29.10;;;;;;6111855;28;83124;-69
2022/04/04 13:42:24;;;;;;;11.35;6.15;;;24.00;28.80;;;;;;6111928;28;80947;-72
2022/04/04 13:45:24;;;;;;;9.40;5.18;;;24.00;28.60;;;;;;6110833;28;80690;-70
2022/04/04 13:48:25;;;;;;;12.85;5.57;;;23.90;28.00;;;;;;6111855;28;80605;-69
2022/04/04 13:51:26;;;;;;;6.55;4.20;;;23.90;28.30;;;;;;6111241;28;80376;-68
2022/04/04 13:54:26;;;;;;;7.68;4.40;;;23.90;28.60;;;;;;6111033;28;81375;-69
2022/04/04 13:57:27;;;;;;;11.52;4.97;;;23.90;28.70;;;;;;6111623;28;80240;-70
2022/04/04 14:00:27;;;;;;;6.50;4.18;;;24.00;28.90;;;;;;6111467;28;80205;-69
2022/04/04 14:03:31;;;;;;;9.15;4.68;;;24.00;29.00;;;;;;6111597;28;80687;-69
2022/04/04 14:06:32;;;;;;;6.15;3.53;;;23.90;29.00;;;;;;6110847;28;80426;-72
2022/04/04 14:09:33;;;;;;;7.70;3.65;;;23.90;29.10;;;;;;6111097;28;80451;-67
2022/04/04 14:12:35;;;;;;;8.02;3.58;;;23.90;29.30;;;;;;6110450;28;80772;-71
2022/04/04 14:15:37;;;;;;;9.23;4.18;;;23.90;29.10;;;;;;6110428;28;80164;-70
2022/04/04 14:18:38;;;;;;;7.15;3.28;;;23.90;29.40;;;;;;6111535;28;80285;-70
2022/04/04 14:21:39;;;;;;;5.07;3.30;;;23.90;29.20;;;;;;6104791;28;81460;-69
2022/04/04 14:24:40;;;;;;;4.88;3.05;;;23.80;29.20;;;;;;6102097;28;81492;-68
2022/04/04 14:27:41;;;;;;;6.57;3.13;;;23.80;29.20;;;;;;6106479;28;81799;-70
2022/04/04 14:30:41;;;;;;;6.65;3.65;;;23.80;29.30;;;;;;6096228;28;80368;-70
2022/04/04 14:33:43;;;;;;;5.18;3.05;;;23.80;29.40;;;;;;6111717;28;81980;-68
2022/04/04 14:36:43;;;;;;;4.88;2.72;;;23.80;29.30;;;;;;6110770;28;80373;-71
2022/04/04 14:39:45;;;;;;;4.22;2.38;;;23.80;29.40;;;;;;6111203;28;80846;-68
2022/04/04 14:42:45;;;;;;;5.13;2.58;;;23.80;29.40;;;;;;6111073;28;80331;-68
2022/04/04 14:45:46;;;;;;;4.15;2.88;;;23.80;29.30;;;;;;6110946;28;87259;-68
2022/04/04 14:48:47;;;;;;;4.10;2.60;;;23.90;29.30;;;;;;6110236;28;80786;-67
2022/04/04 14:51:47;;;;;;;5.63;3.28;;;23.90;29.40;;;;;;6109586;28;80867;-69
2022/04/04 14:54:48;;;;;;;3.70;2.67;;;23.80;30.00;;;;;;6110430;28;80283;-71
2022/04/04 14:57:50;;;;;;;4.03;2.60;;;23.80;29.90;;;;;;6110312;28;80350;-70
2022/04/04 15:00:50;;;;;;;3.30;2.20;;;23.80;29.30;;;;;;6110501;28;80420;-69
2022/04/04 15:03:51;;;;;;;3.03;2.25;;;23.70;29.30;;;;;;6110046;28;81023;-68
2022/04/04 15:06:51;;;;;;;2.40;2.08;;;23.70;29.30;;;;;;6112767;28;81404;-68
2022/04/04 15:09:52;;;;;;;3.95;2.58;;;23.70;29.40;;;;;;6112877;28;80289;-68
2022/04/04 15:12:52;;;;;;;3.80;2.40;;;23.70;29.30;;;;;;6092809;28;80169;-69
2022/04/04 15:15:53;;;;;;;2.30;2.10;;;23.70;29.30;;;;;;6090573;28;80288;-70
2022/04/04 15:18:54;;;;;;;4.32;2.50;;;23.70;29.40;;;;;;6108062;28;80339;-67
2022/04/04 15:21:54;;;;;;;3.70;2.08;;;23.70;29.30;;;;;;6113952;28;80286;-67
2022/04/04 15:24:55;;;;;;;2.53;2.10;;;23.70;29.30;;;;;;6114007;28;80493;-67
2022/04/04 15:27:55;;;;;;;2.42;2.05;;;23.70;29.50;;;;;;6113814;28;81181;-67
2022/04/04 15:30:56;;;;;;;3.58;2.10;;;23.70;29.50;;;;;;6111838;28;80491;-66
2022/04/04 15:33:56;;;;;;;5.43;2.88;;;23.70;29.60;;;;;;6109029;28;84780;-68
2022/04/04 15:36:57;;;;;;;6.35;2.53;;;23.70;29.60;;;;;;6112101;28;80797;-66